sensor_id;sensor_type;location;lat;lon;timestamp;pressure;altitude;pressure_sealevel;temperature;humidity
56632;BME280;42503;39.928;-75.152;2023-04-20T00:08:23;101729.88;;;22.42;26.35
56632;BME280;42503;39.928;-75.152;2023-04-20T00:18:24;101726.22;;;22.37;27.18
56632;BME280;42503;39.928;-75.152;2023-04-20T00:28:26;101782.06;;;22.57;27.70
56632;BME280;42503;39.928;-75.152;2023-04-20T00:38:27;101796.03;;;22.62;28.12
56632;BME280;42503;39.928;-75.152;2023-04-20T00:48:29;101698.16;;;22.06;28.13
56632;BME280;42503;39.928;-75.152;2023-04-20T00:58:30;101783.53;;;22.65;28.21
56632;BME280;42503;39.928;-75.152;2023-04-20T01:08:32;101807.28;;;22.77;28.29
56632;BME280;42503;39.928;-75.152;2023-04-20T01:18:46;101823.75;;;22.79;27.84
56632;BME280;42503;39.928;-75.152;2023-04-20T01:28:48;101827.94;;;22.81;28.14
56632;BME280;42503;39.928;-75.152;2023-04-20T01:38:50;101799.41;;;22.59;28.36
56632;BME280;42503;39.928;-75.152;2023-04-20T01:48:51;101855.88;;;22.87;28.05
56632;BME280;42503;39.928;-75.152;2023-04-20T01:58:53;101856.44;;;22.89;28.35
56632;BME280;42503;39.928;-75.152;2023-04-20T02:08:54;101850.31;;;22.87;28.61
56632;BME280;42503;39.928;-75.152;2023-04-20T02:18:56;101866.81;;;22.93;28.31
56632;BME280;42503;39.928;-75.152;2023-04-20T02:28:57;101867.09;;;22.92;28.70
56632;BME280;42503;39.928;-75.152;2023-04-20T02:39:01;101820.59;;;22.60;28.65
56632;BME280;42503;39.928;-75.152;2023-04-20T02:49:03;101872.41;;;22.93;28.62
56632;BME280;42503;39.928;-75.152;2023-04-20T02:59:04;101871.22;;;22.84;28.81
56632;BME280;42503;39.928;-75.152;2023-04-20T03:09:06;101840.69;;;22.67;29.16
56632;BME280;42503;39.928;-75.152;2023-04-20T03:19:08;101904.97;;;22.82;29.39
56632;BME280;42503;39.928;-75.152;2023-04-20T03:29:13;101902.16;;;22.77;29.68
56632;BME280;42503;39.928;-75.152;2023-04-20T03:39:14;101947.50;;;23.00;29.63
56632;BME280;42503;39.928;-75.152;2023-04-20T03:49:16;101914.50;;;22.87;29.40
56632;BME280;42503;39.928;-75.152;2023-04-20T03:59:17;101941.34;;;22.93;29.47
56632;BME280;42503;39.928;-75.152;2023-04-20T04:09:21;101958.09;;;22.93;29.52
56632;BME280;42503;39.928;-75.152;2023-04-20T04:19:22;101983.84;;;23.05;29.65
56632;BME280;42503;39.928;-75.152;2023-04-20T04:29:24;101949.03;;;22.80;29.76
56632;BME280;42503;39.928;-75.152;2023-04-20T04:39:26;101985.41;;;22.91;29.58
56632;BME280;42503;39.928;-75.152;2023-04-20T04:49:28;101986.66;;;23.05;29.88
56632;BME280;42503;39.928;-75.152;2023-04-20T04:59:32;101991.94;;;23.06;29.72
56632;BME280;42503;39.928;-75.152;2023-04-20T05:09:34;101991.66;;;23.08;29.93
56632;BME280;42503;39.928;-75.152;2023-04-20T05:19:35;101966.41;;;22.88;30.25
56632;BME280;42503;39.928;-75.152;2023-04-20T05:29:39;101978.53;;;23.08;30.33
56632;BME280;42503;39.928;-75.152;2023-04-20T05:39:40;101962.88;;;22.97;30.23
56632;BME280;42503;39.928;-75.152;2023-04-20T05:49:42;101968.66;;;22.91;30.30
56632;BME280;42503;39.928;-75.152;2023-04-20T05:59:45;101995.53;;;22.97;31.01
56632;BME280;42503;39.928;-75.152;2023-04-20T06:09:46;101955.78;;;22.84;31.07
56632;BME280;42503;39.928;-75.152;2023-04-20T06:19:48;101987.75;;;23.09;30.71
56632;BME280;42503;39.928;-75.152;2023-04-20T06:29:49;101988.88;;;23.08;30.81
56632;BME280;42503;39.928;-75.152;2023-04-20T06:39:53;102000.53;;;23.00;30.82
56632;BME280;42503;39.928;-75.152;2023-04-20T06:50:00;101952.97;;;22.84;31.46
56632;BME280;42503;39.928;-75.152;2023-04-20T07:00:08;102008.69;;;23.06;31.18
56632;BME280;42503;39.928;-75.152;2023-04-20T07:10:12;101990.66;;;22.82;31.09
56632;BME280;42503;39.928;-75.152;2023-04-20T07:20:14;102038.00;;;23.09;31.52
56632;BME280;42503;39.928;-75.152;2023-04-20T07:30:15;101996.63;;;22.96;31.29
56632;BME280;42503;39.928;-75.152;2023-04-20T07:40:17;102008.69;;;23.06;31.28
56632;BME280;42503;39.928;-75.152;2023-04-20T07:50:21;102043.31;;;23.05;31.34
56632;BME280;42503;39.928;-75.152;2023-04-20T08:00:23;102037.97;;;23.04;31.59
56632;BME280;42503;39.928;-75.152;2023-04-20T08:10:25;102001.72;;;22.72;31.43
56632;BME280;42503;39.928;-75.152;2023-04-20T08:20:26;102053.16;;;22.86;31.38
56632;BME280;42503;39.928;-75.152;2023-04-20T08:30:27;102067.94;;;22.81;31.36
56632;BME280;42503;39.928;-75.152;2023-04-20T08:40:30;102120.59;;;23.00;31.56
56632;BME280;42503;39.928;-75.152;2023-04-20T08:50:32;102117.53;;;23.01;31.30
56632;BME280;42503;39.928;-75.152;2023-04-20T09:00:34;102108.22;;;22.91;31.63
56632;BME280;42503;39.928;-75.152;2023-04-20T09:10:40;102103.56;;;22.96;31.33
56632;BME280;42503;39.928;-75.152;2023-04-20T09:20:42;102100.47;;;22.98;31.50
56632;BME280;42503;39.928;-75.152;2023-04-20T09:30:47;102089.31;;;22.98;31.71
56632;BME280;42503;39.928;-75.152;2023-04-20T09:40:49;102063.63;;;22.96;31.52
56632;BME280;42503;39.928;-75.152;2023-04-20T09:50:51;102064.16;;;22.93;31.49
56632;BME280;42503;39.928;-75.152;2023-04-20T10:00:57;102049.13;;;22.67;31.88
56632;BME280;42503;39.928;-75.152;2023-04-20T10:10:58;102087.84;;;22.90;31.97
56632;BME280;42503;39.928;-75.152;2023-04-20T10:21:05;102089.41;;;22.81;32.06
56632;BME280;42503;39.928;-75.152;2023-04-20T10:31:07;102096.38;;;22.78;32.19
56632;BME280;42503;39.928;-75.152;2023-04-20T10:41:10;102094.06;;;22.70;32.21
56632;BME280;42503;39.928;-75.152;2023-04-20T10:51:11;102115.88;;;22.73;32.35
56632;BME280;42503;39.928;-75.152;2023-04-20T11:01:30;102131.38;;;22.59;32.72
56632;BME280;42503;39.928;-75.152;2023-04-20T11:11:32;102145.78;;;22.51;33.21
56632;BME280;42503;39.928;-75.152;2023-04-20T11:21:43;102169.13;;;22.45;33.34
56632;BME280;42503;39.928;-75.152;2023-04-20T11:31:51;102096.06;;;21.99;33.00
56632;BME280;42503;39.928;-75.152;2023-04-20T11:41:53;102161.44;;;22.30;33.08
56632;BME280;42503;39.928;-75.152;2023-04-20T11:51:55;102169.75;;;22.25;32.87
56632;BME280;42503;39.928;-75.152;2023-04-20T12:01:59;102144.97;;;22.06;33.38
56632;BME280;42503;39.928;-75.152;2023-04-20T12:12:04;102197.84;;;22.18;33.65
56632;BME280;42503;39.928;-75.152;2023-04-20T12:22:09;102198.34;;;22.15;33.31
56632;BME280;42503;39.928;-75.152;2023-04-20T12:32:14;102203.22;;;22.08;33.74
56632;BME280;42503;39.928;-75.152;2023-04-20T12:42:15;102209.66;;;22.08;33.77
56632;BME280;42503;39.928;-75.152;2023-04-20T12:52:16;102191.22;;;22.07;33.29
56632;BME280;42503;39.928;-75.152;2023-04-20T13:02:18;102215.41;;;22.02;32.62
56632;BME280;42503;39.928;-75.152;2023-04-20T13:12:20;102198.13;;;22.00;33.06
56632;BME280;42503;39.928;-75.152;2023-04-20T13:22:21;102147.13;;;21.61;33.27
56632;BME280;42503;39.928;-75.152;2023-04-20T13:32:25;102207.81;;;21.97;33.37
56632;BME280;42503;39.928;-75.152;2023-04-20T13:42:26;102199.00;;;21.83;33.09
56632;BME280;42503;39.928;-75.152;2023-04-20T13:52:28;102212.94;;;21.83;32.53
56632;BME280;42503;39.928;-75.152;2023-04-20T14:02:31;102216.13;;;21.92;33.04
56632;BME280;42503;39.928;-75.152;2023-04-20T14:12:33;102196.72;;;21.80;33.65
56632;BME280;42503;39.928;-75.152;2023-04-20T14:22:37;102228.78;;;22.00;32.89
56632;BME280;42503;39.928;-75.152;2023-04-20T14:32:39;102240.44;;;21.97;32.60
56632;BME280;42503;39.928;-75.152;2023-04-20T14:42:41;102209.03;;;21.85;32.63
56632;BME280;42503;39.928;-75.152;2023-04-20T14:52:42;102210.75;;;21.86;32.47
56632;BME280;42503;39.928;-75.152;2023-04-20T15:02:43;102204.00;;;21.81;32.85
56632;BME280;42503;39.928;-75.152;2023-04-20T15:12:46;102212.06;;;22.00;32.33
56632;BME280;42503;39.928;-75.152;2023-04-20T15:22:50;102203.75;;;22.05;32.84
56632;BME280;42503;39.928;-75.152;2023-04-20T15:32:54;102193.72;;;22.04;31.93
56632;BME280;42503;39.928;-75.152;2023-04-20T15:42:56;102126.75;;;21.77;31.94
56632;BME280;42503;39.928;-75.152;2023-04-20T15:53:00;102163.06;;;22.04;31.87
56632;BME280;42503;39.928;-75.152;2023-04-20T16:03:02;102154.44;;;22.05;32.10
56632;BME280;42503;39.928;-75.152;2023-04-20T16:13:03;102085.91;;;21.88;31.72
56632;BME280;42503;39.928;-75.152;2023-04-20T16:23:04;102102.34;;;22.11;31.76
56632;BME280;42503;39.928;-75.152;2023-04-20T16:33:06;102105.78;;;22.13;31.91
56632;BME280;42503;39.928;-75.152;2023-04-20T16:43:07;101989.91;;;21.73;31.95
56632;BME280;42503;39.928;-75.152;2023-04-20T16:53:08;102035.47;;;22.11;31.86
56632;BME280;42503;39.928;-75.152;2023-04-20T17:03:10;102038.97;;;22.23;32.32
56632;BME280;42503;39.928;-75.152;2023-04-20T17:13:13;102021.69;;;22.26;32.30
56632;BME280;42503;39.928;-75.152;2023-04-20T17:23:17;102011.69;;;22.30;32.41
56632;BME280;42503;39.928;-75.152;2023-04-20T17:33:21;101991.13;;;22.37;32.59
56632;BME280;42503;39.928;-75.152;2023-04-20T17:43:23;101946.09;;;22.18;32.93
56632;BME280;42503;39.928;-75.152;2023-04-20T17:53:24;101948.72;;;22.35;32.96
56632;BME280;42503;39.928;-75.152;2023-04-20T18:03:25;101946.59;;;22.47;33.08
56632;BME280;42503;39.928;-75.152;2023-04-20T18:13:28;101914.09;;;22.30;33.32
56632;BME280;42503;39.928;-75.152;2023-04-20T18:23:29;101929.38;;;22.55;33.22
56632;BME280;42503;39.928;-75.152;2023-04-20T18:33:30;101918.47;;;22.58;33.25
56632;BME280;42503;39.928;-75.152;2023-04-20T18:43:32;101849.97;;;22.30;33.40
56632;BME280;42503;39.928;-75.152;2023-04-20T18:53:33;101887.88;;;22.69;33.81
56632;BME280;42503;39.928;-75.152;2023-04-20T19:03:34;101864.75;;;22.73;33.63
56632;BME280;42503;39.928;-75.152;2023-04-20T19:13:36;101843.25;;;22.74;33.76
56632;BME280;42503;39.928;-75.152;2023-04-20T19:23:37;101841.34;;;22.79;33.61
56632;BME280;42503;39.928;-75.152;2023-04-20T19:33:39;101799.41;;;22.64;33.96
56632;BME280;42503;39.928;-75.152;2023-04-20T19:43:41;101701.59;;;22.18;33.97
56632;BME280;42503;39.928;-75.152;2023-04-20T19:53:42;101809.59;;;22.91;33.64
56632;BME280;42503;39.928;-75.152;2023-04-20T20:03:43;101805.97;;;22.95;33.86
56632;BME280;42503;39.928;-75.152;2023-04-20T20:13:45;101796.53;;;23.01;34.03
56632;BME280;42503;39.928;-75.152;2023-04-20T20:23:52;101790.13;;;23.06;34.21
56632;BME280;42503;39.928;-75.152;2023-04-20T20:33:56;101794.56;;;23.07;34.30
56632;BME280;42503;39.928;-75.152;2023-04-20T20:43:58;101728.59;;;22.75;34.05
56632;BME280;42503;39.928;-75.152;2023-04-20T20:53:59;101777.84;;;23.12;33.95
56632;BME280;42503;39.928;-75.152;2023-04-20T21:04:01;101770.00;;;23.09;34.45
56632;BME280;42503;39.928;-75.152;2023-04-20T21:14:04;101789.59;;;23.19;34.01
56632;BME280;42503;39.928;-75.152;2023-04-20T21:24:11;101763.31;;;23.10;34.48
56632;BME280;42503;39.928;-75.152;2023-04-20T21:34:13;101778.69;;;23.23;34.48
56632;BME280;42503;39.928;-75.152;2023-04-20T21:44:14;101764.72;;;23.18;34.60
56632;BME280;42503;39.928;-75.152;2023-04-20T21:54:15;101772.84;;;23.29;34.91
56632;BME280;42503;39.928;-75.152;2023-04-20T22:04:17;101767.25;;;23.29;34.43
56632;BME280;42503;39.928;-75.152;2023-04-20T22:14:25;101780.94;;;23.31;34.62
56632;BME280;42503;39.928;-75.152;2023-04-20T22:24:31;101772.84;;;23.34;34.35
56632;BME280;42503;39.928;-75.152;2023-04-20T22:34:34;101767.81;;;23.26;34.76
56632;BME280;42503;39.928;-75.152;2023-04-20T22:44:35;101768.38;;;23.23;34.62
56632;BME280;42503;39.928;-75.152;2023-04-20T22:54:36;101773.41;;;23.37;34.29
56632;BME280;42503;39.928;-75.152;2023-04-20T23:04:41;101660.50;;;22.71;34.38
56632;BME280;42503;39.928;-75.152;2023-04-20T23:14:45;101735.41;;;23.20;34.40
56632;BME280;42503;39.928;-75.152;2023-04-20T23:24:47;101717.53;;;23.06;34.27
56632;BME280;42503;39.928;-75.152;2023-04-20T23:34:50;101755.25;;;23.29;34.52
56632;BME280;42503;39.928;-75.152;2023-04-20T23:44:51;101773.41;;;23.37;34.47
56632;BME280;42503;39.928;-75.152;2023-04-20T23:54:53;101785.44;;;23.37;34.47
